Main page
METAR-TAF:

METAR-TAF

Airports :

Nörvenich Air Base

Nörvenich, Germany

latitude: 50-50N, longitude: 006-40E, elevation: 118 m

Current weather observation

The report was made 1 hour and 2 minutes ago, at 22:20 UTC
Wind 11 kt from the East
Temperature 15°C
Humidity 36%
Pressure 1004 hPa
Visibility 10 km or more

METAR: ETNN 222220Z 10011KT 9999 15/00 Q1004 BLU+

Time: 01:22 (23:22 UTC)


TAF: missing

Weather observations and forecasts of more than 4000 airports (METAR and TAF reports).

The available stations are represented by yellow and red dots on the map.

Hover mouse over dot to see the name of the station.

Then click to see weather observations and forecasts.

To change the map : click on the green buttons with a black cross to zoom in, on the green button with a dash to zoom out, or on the green arrows for adjacent maps.


METAR-TAF: